Terminal Aerodrome Forecast
Issued by NWS

Home | Current Version | Previous Version | Text Only | Print | Product List | Glossary On
Versions: 1 2 3 4 5 6 7 8 9 10 11 12
870
FTUS42 TJSJ 242342
TAFJBQ
TAF
TJBQ 242342Z 2500/2524 23009KT P6SM FEW022 SCT030
     FM250200 06008KT P6SM SCT030
     FM251500 06012G22KT P6SM VCSH SCT025 BKN040
     FM252100 08011KT P6SM FEW022 SCT030
      AMD NOT SKED 2502/2511=

USA.gov is the U.S. government's official web portal to all federal, state and local government web resources and services.